createdAt,value
2024-02-02T00:00:16.617Z,96651.97
2024-02-02T00:05:19.513Z,96662.28
2024-02-02T00:10:24.568Z,96648.28
2024-02-02T00:15:27.202Z,96649.13
2024-02-02T00:20:33.082Z,96630.56
2024-02-02T00:25:36.165Z,96637.00
2024-02-02T00:30:39.508Z,96627.69
2024-02-02T00:36:07.259Z,96657.00
2024-02-02T00:41:10.314Z,96623.09
2024-02-02T00:46:12.655Z,96616.09
2024-02-02T00:51:15.557Z,96628.06
2024-02-02T00:56:18.579Z,96627.50
2024-02-02T01:01:21.435Z,96630.75
2024-02-02T01:06:28.125Z,96617.13
2024-02-02T01:11:30.648Z,96602.53
2024-02-02T01:16:34.365Z,96594.72
2024-02-02T01:21:38.020Z,96596.59
2024-02-02T01:26:41.037Z,96598.41
2024-02-02T01:31:43.533Z,96610.72
2024-02-02T01:36:45.989Z,96602.81
2024-02-02T01:41:49.718Z,96602.25
2024-02-02T01:46:52.395Z,96598.56
2024-02-02T01:51:55.700Z,96585.69
2024-02-02T01:56:58.537Z,96599.56
2024-02-02T02:02:04.895Z,96568.25
2024-02-02T02:07:09.251Z,96598.84
2024-02-02T02:12:11.809Z,96593.63
2024-02-02T02:17:14.785Z,96541.47
2024-02-02T02:22:17.670Z,96571.72
2024-02-02T02:27:20.724Z,96571.19
2024-02-02T02:32:23.335Z,96564.69
2024-02-02T02:37:29.096Z,96551.84
2024-02-02T02:42:34.282Z,96564.97
2024-02-02T02:47:37.614Z,96575.22
2024-02-02T02:52:40.615Z,96583.59
2024-02-02T02:57:43.647Z,96580.13
2024-02-02T03:02:50.856Z,96564.09
2024-02-02T03:07:54.366Z,96571.81
2024-02-02T03:12:57.509Z,96572.09
2024-02-02T03:18:02.747Z,96575.84
2024-02-02T03:23:06.016Z,96578.53
2024-02-02T03:28:08.869Z,96587.72
2024-02-02T03:33:11.448Z,96580.75
2024-02-02T03:38:18.644Z,96583.13
2024-02-02T03:43:21.036Z,96590.72
2024-02-02T03:48:24.037Z,96608.75
2024-02-02T03:53:26.981Z,96576.28
2024-02-02T03:58:29.312Z,96596.00
2024-02-02T04:03:33.873Z,96602.78
2024-02-02T04:08:37.519Z,96598.19
2024-02-02T04:13:40.708Z,96589.94
2024-02-02T04:18:43.771Z,96620.31
2024-02-02T04:23:46.724Z,96588.31
2024-02-02T04:28:50.037Z,96630.75
2024-02-02T04:33:53.189Z,96634.47
2024-02-02T04:38:56.101Z,96635.88
2024-02-02T04:43:59.153Z,96629.06
2024-02-02T04:49:06.246Z,96636.94
2024-02-02T04:54:11.681Z,96644.47
2024-02-02T04:59:14.605Z,96636.09
2024-02-02T05:04:17.073Z,96638.50
2024-02-02T05:09:20.134Z,96648.56
2024-02-02T05:14:23.211Z,96657.94
2024-02-02T05:19:25.830Z,96648.81
2024-02-02T05:24:42.588Z,96649.66
2024-02-02T05:29:50.337Z,96670.28
2024-02-02T05:34:55.777Z,96660.91
2024-02-02T05:39:58.366Z,96697.78
2024-02-02T05:45:03.456Z,96687.66
2024-02-02T05:50:07.043Z,96697.03
2024-02-02T05:55:09.816Z,96705.94
2024-02-02T06:07:09.328Z,96719.31
2024-02-02T06:12:11.719Z,96722.22
2024-02-02T06:17:14.435Z,96721.00
2024-02-02T06:22:21.353Z,96724.41
2024-02-02T06:27:31.850Z,96742.88
2024-02-02T06:32:36.728Z,96767.19
2024-02-02T06:37:38.935Z,96778.84
2024-02-02T06:43:02.414Z,96748.78
2024-02-02T06:48:05.924Z,96752.66
2024-02-02T06:53:09.339Z,96777.38
2024-02-02T06:58:27.672Z,96798.03
2024-02-02T07:03:34.330Z,96792.94
2024-02-02T07:08:36.921Z,96804.97
2024-02-02T07:13:50.883Z,96816.53
2024-02-02T07:18:54.615Z,96838.34
2024-02-02T07:23:58.725Z,96839.25
2024-02-02T07:29:08.523Z,96833.66
2024-02-02T07:34:30.363Z,96844.56
2024-02-02T07:39:33.471Z,96842.13
2024-02-02T07:44:36.476Z,96834.56
2024-02-02T07:49:41.437Z,96842.50
2024-02-02T07:54:43.659Z,96840.53
2024-02-02T07:59:46.352Z,96841.22
2024-02-02T08:04:50.943Z,96845.09
2024-02-02T08:09:53.310Z,96851.53
2024-02-02T08:14:55.482Z,96850.88
2024-02-02T08:20:12.580Z,96843.50
2024-02-02T08:25:15.588Z,96829.88
2024-02-02T08:30:18.843Z,96882.56
2024-02-02T08:35:29.952Z,96859.09
2024-02-02T08:40:45.506Z,96875.13
2024-02-02T08:46:06.220Z,96882.81
2024-02-02T08:51:25.186Z,96884.81
2024-02-02T08:56:28.330Z,96874.47
2024-02-02T09:01:34.073Z,96877.22
2024-02-02T09:06:45.431Z,96849.00
2024-02-02T09:11:52.036Z,96877.13
2024-02-02T09:16:55.729Z,96859.97
2024-02-02T09:22:05.448Z,96879.91
2024-02-02T09:27:14.061Z,96869.53
2024-02-02T09:32:17.588Z,96891.03
2024-02-02T09:37:31.061Z,96879.09
2024-02-02T09:42:53.317Z,96880.69
2024-02-02T09:48:12.866Z,96878.25
2024-02-02T09:53:31.003Z,96881.31
2024-02-02T09:59:02.455Z,96872.72
2024-02-02T10:04:42.554Z,96857.53
2024-02-02T10:10:16.780Z,96854.13
2024-02-02T10:15:44.091Z,96871.78
2024-02-02T10:21:18.512Z,96865.03
2024-02-02T10:26:45.170Z,96858.34
2024-02-02T10:32:05.610Z,96871.97
2024-02-02T10:37:07.789Z,96880.81
2024-02-02T10:42:39.780Z,96879.81
2024-02-02T10:48:01.824Z,96889.84
2024-02-02T10:53:18.682Z,96887.19
2024-02-02T10:58:26.947Z,96880.59
2024-02-02T11:03:42.857Z,96872.06
2024-02-02T11:08:57.980Z,96889.09
2024-02-02T11:14:48.205Z,96881.63
2024-02-02T11:20:15.297Z,96879.59
2024-02-02T11:25:30.960Z,96872.81
2024-02-02T11:30:51.986Z,96879.13
2024-02-02T11:36:16.086Z,96879.63
2024-02-02T11:41:23.979Z,96872.25
2024-02-02T11:46:28.730Z,96862.78
2024-02-02T11:51:32.027Z,96878.97
2024-02-02T11:56:39.879Z,96877.19
2024-02-02T12:01:57.119Z,96866.66
2024-02-02T12:07:20.522Z,96864.34
2024-02-02T12:12:53.413Z,96852.75
2024-02-02T12:17:56.013Z,96847.91
2024-02-02T12:22:58.739Z,96865.91
2024-02-02T12:28:01.173Z,96860.69
2024-02-02T12:33:10.589Z,96864.25
2024-02-02T12:38:22.052Z,96842.63
2024-02-02T12:43:28.108Z,96861.72
2024-02-02T12:48:30.520Z,96863.31
2024-02-02T12:53:33.093Z,96862.44
2024-02-02T12:58:38.439Z,96846.00
2024-02-02T13:03:44.712Z,96840.91
2024-02-02T13:08:47.974Z,96863.75
2024-02-02T13:13:51.039Z,96869.69
2024-02-02T13:18:53.385Z,96875.69
2024-02-02T13:23:57.736Z,96880.50
2024-02-02T13:29:00.668Z,96851.50
2024-02-02T13:34:06.859Z,96855.16
2024-02-02T13:39:20.283Z,96869.97
2024-02-02T13:44:24.366Z,96880.94
2024-02-02T13:49:33.744Z,96871.09
2024-02-02T13:54:37.268Z,96885.78
2024-02-02T13:59:40.254Z,96892.84
2024-02-02T14:04:43.839Z,96874.69
2024-02-02T14:10:09.522Z,96885.63
2024-02-02T14:15:11.822Z,96885.56
2024-02-02T14:20:17.810Z,96907.13
2024-02-02T14:25:28.433Z,96923.72
2024-02-02T14:30:33.664Z,96915.78
2024-02-02T14:35:36.725Z,96915.91
2024-02-02T14:40:39.944Z,96917.91
2024-02-02T14:45:42.462Z,96930.06
2024-02-02T14:50:45.267Z,96928.34
2024-02-02T14:55:47.894Z,96941.84
2024-02-02T15:00:51.650Z,96936.75
2024-02-02T15:05:55.728Z,96923.94
2024-02-02T15:10:58.113Z,96952.94
2024-02-02T15:16:01.233Z,96971.16
2024-02-02T15:21:04.189Z,96965.13
2024-02-02T15:26:09.842Z,96964.13
2024-02-02T15:31:13.329Z,96987.53
2024-02-02T15:36:16.184Z,96977.16
2024-02-02T15:41:20.273Z,96971.47
2024-02-02T15:46:25.318Z,97005.38
2024-02-02T15:51:27.729Z,97008.06
2024-02-02T15:56:30.591Z,97022.50
2024-02-02T16:01:33.477Z,97028.72
2024-02-02T16:06:37.032Z,97017.59
2024-02-02T16:11:39.372Z,97044.22
2024-02-02T16:16:41.804Z,97053.47
2024-02-02T16:21:45.355Z,97052.47
2024-02-02T16:26:48.650Z,97070.03
2024-02-02T16:31:51.575Z,97074.50
2024-02-02T16:36:54.129Z,97081.47
2024-02-02T16:41:59.571Z,97072.13
2024-02-02T16:47:04.097Z,97092.88
2024-02-02T16:52:06.921Z,97102.94
2024-02-02T16:57:09.292Z,97104.63
2024-02-02T17:02:12.205Z,97100.53
2024-02-02T17:07:19.147Z,97094.81
2024-02-02T17:12:23.840Z,97088.81
2024-02-02T17:17:26.670Z,97098.25
2024-02-02T17:22:29.228Z,97099.44
2024-02-02T17:27:31.953Z,97100.19
2024-02-02T17:32:40.013Z,97115.47
2024-02-02T17:37:44.425Z,97116.13
2024-02-02T17:42:48.562Z,97102.56
2024-02-02T17:47:51.117Z,97109.91
2024-02-02T17:52:54.045Z,97111.53
2024-02-02T17:57:57.043Z,97101.94
2024-02-02T18:02:59.881Z,97116.22
2024-02-02T18:08:05.331Z,97128.56
2024-02-02T18:13:08.763Z,97113.09
2024-02-02T18:18:12.514Z,97117.19
2024-02-02T18:23:14.972Z,97093.59
2024-02-02T18:28:18.719Z,97126.03
2024-02-02T18:33:21.754Z,97134.16
2024-02-02T18:38:24.095Z,97125.47
2024-02-02T18:43:26.677Z,97141.63
2024-02-02T18:48:28.979Z,97138.06
2024-02-02T18:53:31.275Z,97140.34
2024-02-02T18:58:39.843Z,97134.16
2024-02-02T19:03:46.152Z,97144.41
2024-02-02T19:08:49.193Z,97145.16
2024-02-02T19:13:52.061Z,97140.94
2024-02-02T19:18:54.955Z,97152.06
2024-02-02T19:23:57.901Z,97129.06
2024-02-02T19:29:00.519Z,97158.28
2024-02-02T19:34:03.780Z,97149.91
2024-02-02T19:39:09.724Z,97164.25
2024-02-02T19:44:12.559Z,97157.31
2024-02-02T19:49:15.474Z,97155.72
2024-02-02T19:54:17.793Z,97169.69
2024-02-02T19:59:20.854Z,97143.16
2024-02-02T20:04:25.125Z,97145.69
2024-02-02T20:09:28.741Z,97154.97
2024-02-02T20:14:31.544Z,97153.47
2024-02-02T20:19:34.332Z,97144.19
2024-02-02T20:24:42.338Z,97155.56
2024-02-02T20:29:44.646Z,97154.28
2024-02-02T20:34:47.421Z,97144.56
2024-02-02T20:39:49.744Z,97120.75
2024-02-02T20:44:56.387Z,97137.97
2024-02-02T20:49:58.674Z,97132.47
2024-02-02T20:55:04.241Z,97138.75
2024-02-02T21:00:12.451Z,97122.13
2024-02-02T21:05:14.937Z,97113.59
2024-02-02T21:10:17.174Z,97125.19
2024-02-02T21:15:20.137Z,97129.34
2024-02-02T21:20:23.541Z,97118.19
2024-02-02T21:25:25.763Z,97127.69
2024-02-02T21:30:27.939Z,97124.13
2024-02-02T21:35:30.115Z,97117.56
2024-02-02T21:40:32.454Z,97124.44
2024-02-02T21:45:37.014Z,97117.56
2024-02-02T21:50:43.126Z,97138.78
2024-02-02T21:55:46.904Z,97120.88
2024-02-02T22:00:51.811Z,97104.25
2024-02-02T22:05:54.147Z,97127.88
2024-02-02T22:10:56.988Z,97125.94
2024-02-02T22:15:59.699Z,97117.13
2024-02-02T22:21:01.940Z,97113.56
2024-02-02T22:26:05.040Z,97102.25
2024-02-02T22:31:07.311Z,97106.50
2024-02-02T22:36:25.552Z,97103.03
2024-02-02T22:41:33.466Z,97101.38
2024-02-02T22:46:37.338Z,97086.88
2024-02-02T22:51:49.838Z,97098.13
2024-02-02T22:56:52.274Z,97087.63
2024-02-02T23:01:54.409Z,97068.06
2024-02-02T23:06:57.215Z,97066.47
2024-02-02T23:11:59.999Z,97061.50
2024-02-02T23:17:02.245Z,97046.75
2024-02-02T23:22:04.748Z,97068.88
2024-02-02T23:27:07.347Z,97056.09
2024-02-02T23:32:09.575Z,97044.75
2024-02-02T23:37:11.759Z,97021.41
2024-02-02T23:42:13.987Z,97027.44
2024-02-02T23:47:16.275Z,97028.47
2024-02-02T23:52:18.792Z,97039.53
2024-02-02T23:57:25.181Z,97030.91
